createdAt,value
2018-07-23T00:04:34.337Z,26.55
2018-07-23T00:07:21.051Z,26.56
2018-07-23T00:10:06.278Z,26.54
2018-07-23T00:13:14.401Z,26.56
2018-07-23T00:16:02.755Z,26.55
2018-07-23T00:19:00.621Z,26.59
2018-07-23T00:21:46.052Z,26.62
2018-07-23T00:27:36.081Z,26.61
2018-07-23T00:33:51.931Z,26.61
2018-07-23T00:43:13.315Z,26.67
2018-07-23T00:46:14.474Z,26.69
2018-07-23T00:58:52.494Z,26.82
2018-07-23T01:04:51.651Z,26.87
2018-07-23T01:07:56.647Z,26.90
2018-07-23T01:16:58.292Z,27.11
2018-07-23T01:19:54.079Z,27.16
2018-07-23T01:22:59.765Z,27.27
2018-07-23T01:32:30.551Z,27.45
2018-07-23T01:35:30.335Z,27.55
2018-07-23T01:38:27.980Z,27.67
2018-07-23T01:41:47.426Z,27.73
2018-07-23T01:44:42.306Z,27.93
2018-07-23T01:47:43.153Z,28.05
2018-07-23T01:50:46.250Z,28.13
2018-07-23T01:53:47.252Z,28.32
2018-07-23T01:56:49.149Z,28.46
2018-07-23T01:59:58.780Z,28.57
2018-07-23T02:06:26.226Z,28.77
2018-07-23T02:09:31.407Z,28.82
2018-07-23T02:12:41.988Z,28.89
2018-07-23T02:15:46.919Z,28.87
2018-07-23T02:18:34.271Z,29.02
2018-07-23T02:21:18.014Z,29.09
2018-07-23T02:28:00.775Z,29.04
2018-07-23T02:31:02.880Z,29.24
2018-07-23T02:34:11.014Z,29.32
2018-07-23T02:40:16.093Z,29.40
2018-07-23T02:43:07.396Z,29.43
2018-07-23T02:46:04.104Z,29.41
2018-07-23T02:49:16.645Z,29.48
2018-07-23T02:52:55.464Z,29.49
2018-07-23T02:55:55.010Z,29.56
2018-07-23T02:58:51.383Z,29.61
2018-07-23T03:01:46.525Z,29.49
2018-07-23T03:12:04.882Z,29.67
2018-07-23T05:30:53.079Z,30.87
2018-07-23T07:13:17.106Z,31.39
2018-07-23T07:19:38.409Z,31.23
2018-07-23T17:20:55.950Z,29.99
2018-07-23T17:23:32.838Z,30.11
2018-07-23T17:26:09.321Z,30.14
2018-07-23T17:28:45.876Z,30.20
2018-07-23T17:31:23.756Z,30.04
2018-07-23T17:34:03.749Z,30.05
2018-07-23T17:36:46.740Z,29.95
2018-07-23T17:39:23.819Z,29.95
2018-07-23T17:42:06.405Z,30.00
2018-07-23T17:44:43.837Z,29.93
2018-07-23T17:47:22.241Z,29.97
2018-07-23T17:50:01.991Z,29.97
2018-07-23T17:52:40.362Z,29.81
2018-07-23T17:55:23.389Z,29.80
2018-07-23T17:58:01.796Z,29.87
2018-07-23T18:00:39.360Z,29.92
2018-07-23T18:03:25.562Z,29.93
2018-07-23T18:06:06.957Z,29.76
2018-07-23T18:08:45.162Z,29.75
2018-07-23T18:11:23.009Z,29.88
2018-07-23T18:14:00.274Z,29.76
2018-07-23T18:16:38.439Z,29.77
2018-07-23T18:19:19.285Z,29.76
2018-07-23T18:21:56.404Z,29.77
2018-07-23T18:24:33.834Z,29.80
2018-07-23T18:27:12.890Z,29.75
2018-07-23T18:29:51.361Z,29.60
2018-07-23T18:32:30.198Z,29.64
2018-07-23T18:35:09.759Z,29.66
2018-07-23T18:37:47.594Z,29.68
2018-07-23T18:40:25.528Z,29.77
2018-07-23T18:43:03.391Z,29.73
2018-07-23T18:45:45.041Z,29.70
2018-07-23T18:50:39.562Z,29.69
2018-07-23T18:53:19.989Z,29.58
2018-07-23T18:55:56.038Z,29.58
2018-07-23T18:58:33.434Z,29.54
2018-07-23T19:01:10.091Z,29.64
2018-07-23T19:03:47.479Z,29.65
2018-07-23T19:06:25.576Z,29.63
2018-07-23T19:09:03.084Z,29.68
2018-07-23T19:11:41.065Z,29.73
2018-07-23T19:14:19.152Z,29.73
2018-07-23T19:16:57.553Z,29.65
2018-07-23T19:19:35.153Z,29.74
2018-07-23T19:22:11.955Z,29.68
2018-07-23T19:24:50.286Z,29.61
2018-07-23T19:27:27.606Z,29.59
2018-07-23T19:30:05.697Z,29.55
2018-07-23T19:32:43.112Z,29.56
2018-07-23T19:35:21.771Z,29.61
2018-07-23T19:37:59.544Z,29.64
2018-07-23T19:40:39.965Z,29.66
2018-07-23T19:43:17.906Z,29.68
2018-07-23T19:45:54.557Z,29.62
2018-07-23T19:48:41.812Z,29.60
2018-07-23T19:51:20.477Z,29.62
2018-07-23T19:53:57.602Z,29.59
2018-07-23T19:56:34.483Z,29.59
2018-07-23T19:59:24.957Z,29.53
2018-07-23T20:02:01.996Z,29.61
2018-07-23T20:04:44.513Z,29.58
2018-07-23T20:07:22.654Z,29.64
2018-07-23T20:09:59.302Z,29.51
2018-07-23T20:12:36.840Z,29.54
2018-07-23T20:15:15.085Z,29.50
2018-07-23T20:17:52.856Z,29.54
2018-07-23T20:20:30.489Z,29.55
2018-07-23T20:23:07.530Z,29.58
2018-07-23T20:25:44.614Z,29.58
2018-07-23T20:28:23.312Z,29.53
2018-07-23T20:31:01.379Z,29.63
2018-07-23T20:33:39.145Z,29.63
2018-07-23T20:36:20.056Z,29.55
2018-07-23T20:38:57.216Z,29.68
2018-07-23T20:41:34.303Z,29.52
2018-07-23T20:44:11.826Z,29.57
2018-07-23T20:46:49.784Z,29.63
2018-07-23T20:49:27.904Z,29.69
2018-07-23T20:52:05.172Z,29.75
2018-07-23T20:54:43.195Z,29.77
2018-07-23T20:57:20.738Z,29.67
2018-07-23T20:59:57.862Z,29.64
2018-07-23T21:02:35.705Z,29.70
2018-07-23T21:05:13.188Z,29.56
2018-07-23T21:07:49.948Z,29.58
2018-07-23T21:10:28.362Z,29.61
2018-07-23T21:13:05.707Z,29.60
2018-07-23T21:15:43.537Z,29.66
2018-07-23T21:18:21.671Z,29.60
2018-07-23T21:21:03.479Z,29.60
2018-07-23T21:23:41.365Z,29.52
2018-07-23T21:26:18.593Z,29.54
2018-07-23T21:28:56.733Z,29.63
2018-07-23T21:31:34.546Z,29.56
2018-07-23T21:34:12.672Z,29.55
2018-07-23T21:36:52.479Z,29.53
2018-07-23T21:39:30.646Z,29.49
2018-07-23T21:42:10.753Z,29.44
2018-07-23T21:44:49.177Z,29.41
2018-07-23T21:47:26.516Z,29.30
2018-07-23T21:50:04.511Z,29.18
2018-07-23T21:52:41.687Z,29.16
2018-07-23T21:55:19.832Z,28.93
2018-07-23T21:57:57.682Z,28.91
2018-07-23T22:00:36.644Z,28.71
2018-07-23T22:03:15.801Z,28.70
2018-07-23T22:05:54.032Z,28.61
2018-07-23T22:08:31.419Z,28.54
2018-07-23T22:11:08.384Z,28.45
2018-07-23T22:13:46.064Z,28.44
2018-07-23T22:16:24.406Z,28.42
2018-07-23T22:19:01.612Z,28.41
2018-07-23T22:21:39.489Z,28.18
2018-07-23T22:24:17.845Z,28.05
2018-07-23T22:26:55.820Z,28.05
2018-07-23T22:29:32.883Z,27.99
2018-07-23T22:32:10.131Z,28.07
2018-07-23T22:34:48.383Z,28.01
2018-07-23T22:37:26.895Z,27.97
2018-07-23T22:40:05.296Z,27.99
2018-07-23T22:42:44.329Z,27.98
2018-07-23T22:45:21.826Z,27.94
2018-07-23T22:47:59.563Z,27.95
2018-07-23T22:50:37.849Z,27.78
2018-07-23T22:53:15.685Z,27.75
2018-07-23T22:55:54.153Z,27.85
2018-07-23T22:58:31.857Z,27.99
2018-07-23T23:01:09.611Z,27.82
2018-07-23T23:03:47.705Z,27.94
2018-07-23T23:06:26.090Z,28.01
2018-07-23T23:09:04.820Z,28.07
2018-07-23T23:11:43.355Z,28.00
2018-07-23T23:14:22.489Z,27.95
2018-07-23T23:17:00.905Z,27.90
2018-07-23T23:19:39.920Z,27.93
2018-07-23T23:22:17.912Z,27.99
2018-07-23T23:24:55.641Z,27.94
2018-07-23T23:27:32.878Z,27.83
2018-07-23T23:30:11.845Z,27.93
2018-07-23T23:32:50.564Z,27.95
2018-07-23T23:35:28.968Z,28.03
2018-07-23T23:38:07.360Z,28.06
2018-07-23T23:40:45.844Z,28.06
2018-07-23T23:43:24.572Z,27.79
2018-07-23T23:46:01.929Z,27.93
2018-07-23T23:48:40.164Z,28.03
2018-07-23T23:51:18.888Z,28.10
2018-07-23T23:53:57.685Z,28.07
2018-07-23T23:56:35.926Z,28.07
2018-07-23T23:59:14.598Z,28.12
